aviador You're here:

GMTT Decoded Metar

TANGER in MOROCCO
Report Time2017-12-15 17:30:00
UTC Time2017-12-15 17:57:37
Flight Rules mvfr MVFR
Wind200° at 12 kt
W.Decomp.*RWY 28: 2.5 kt HW 11.7 kt LCW
W.Rank200° ranks 10
Current wind is above 200° avg. (7.8)
Visibility6000 m
Phenomena:N/A
Clouds:Scattered 010 Hf
Scattered 016 Hf
Broken 093 Hf
Expected CloudBase > 800 ft AGL from Temp-Dew spread
Ceiling9,300 ft
Temp14°C (ISA -1)
Dew Point12°C (88% RH)
AAT10.3°C
QNH1017 hPa
Density Alt20 ft
Elevation69 ft
Report Wrong Elevation
Raw Report
GMTT 151730Z 20012KT 6000 SCT010 SCT016 BKN093 14/12 Q1017
NOSIG=

Extra information for GMTT:More info

Metar Taf Metar & Taf Last 4 Metars F.Rules Stats Wind Profile Meteogram Temp Stats Airport Information Weather charts Add Link Nearby VenuesMetar ALERT Operation Metar Decoded Social comments